sensor_id;sensor_type;location;lat;lon;timestamp;P1;durP1;ratioP1;P2;durP2;ratioP2
44858;SDS011;30595;52.478;13.524;2022-08-05T00:00:17;188.73;;;131.48;;
44858;SDS011;30595;52.478;13.524;2022-08-05T00:25:21;190.32;;;134.10;;
44858;SDS011;30595;52.478;13.524;2022-08-05T00:50:26;181.55;;;131.57;;
44858;SDS011;30595;52.478;13.524;2022-08-05T01:15:31;184.82;;;131.90;;
44858;SDS011;30595;52.478;13.524;2022-08-05T01:40:38;182.15;;;131.95;;
44858;SDS011;30595;52.478;13.524;2022-08-05T02:05:43;198.68;;;133.00;;
44858;SDS011;30595;52.478;13.524;2022-08-05T02:30:51;192.02;;;131.40;;
44858;SDS011;30595;52.478;13.524;2022-08-05T02:55:58;188.05;;;130.93;;
44858;SDS011;30595;52.478;13.524;2022-08-05T03:21:04;186.75;;;132.45;;
44858;SDS011;30595;52.478;13.524;2022-08-05T03:46:08;205.70;;;135.70;;
44858;SDS011;30595;52.478;13.524;2022-08-05T04:11:14;302.88;;;152.57;;
44858;SDS011;30595;52.478;13.524;2022-08-05T04:36:22;230.15;;;139.77;;
44858;SDS011;30595;52.478;13.524;2022-08-05T05:01:46;207.80;;;136.75;;
44858;SDS011;30595;52.478;13.524;2022-08-05T05:27:10;239.85;;;140.85;;
44858;SDS011;30595;52.478;13.524;2022-08-05T05:52:19;228.35;;;141.20;;
44858;SDS011;30595;52.478;13.524;2022-08-05T06:17:34;228.07;;;140.80;;
44858;SDS011;30595;52.478;13.524;2022-08-05T06:42:56;210.93;;;139.68;;
44858;SDS011;30595;52.478;13.524;2022-08-05T07:08:00;221.57;;;146.57;;
44858;SDS011;30595;52.478;13.524;2022-08-05T07:33:06;188.77;;;138.10;;
44858;SDS011;30595;52.478;13.524;2022-08-05T07:58:18;217.18;;;148.32;;
44858;SDS011;30595;52.478;13.524;2022-08-05T08:23:43;227.65;;;142.45;;
44858;SDS011;30595;52.478;13.524;2022-08-05T08:49:06;229.25;;;141.00;;
44858;SDS011;30595;52.478;13.524;2022-08-05T09:14:30;195.00;;;135.52;;
44858;SDS011;30595;52.478;13.524;2022-08-05T09:39:55;182.23;;;132.35;;
44858;SDS011;30595;52.478;13.524;2022-08-05T10:05:04;280.15;;;148.18;;
44858;SDS011;30595;52.478;13.524;2022-08-05T10:30:10;240.55;;;139.77;;
44858;SDS011;30595;52.478;13.524;2022-08-05T10:55:34;277.98;;;145.32;;
44858;SDS011;30595;52.478;13.524;2022-08-05T11:46:52;240.77;;;141.82;;
44858;SDS011;30595;52.478;13.524;2022-08-05T12:12:14;221.70;;;141.50;;
44858;SDS011;30595;52.478;13.524;2022-08-05T12:37:27;236.52;;;147.13;;
44858;SDS011;30595;52.478;13.524;2022-08-05T13:02:34;199.10;;;138.32;;
44858;SDS011;30595;52.478;13.524;2022-08-05T13:27:42;205.68;;;139.13;;
44858;SDS011;30595;52.478;13.524;2022-08-05T13:52:52;253.20;;;145.35;;
44858;SDS011;30595;52.478;13.524;2022-08-05T14:17:56;257.15;;;146.98;;
44858;SDS011;30595;52.478;13.524;2022-08-05T14:43:02;209.75;;;140.07;;
44858;SDS011;30595;52.478;13.524;2022-08-05T15:08:12;242.13;;;145.68;;
44858;SDS011;30595;52.478;13.524;2022-08-05T15:33:37;235.25;;;144.05;;
44858;SDS011;30595;52.478;13.524;2022-08-05T15:59:01;211.80;;;138.45;;
44858;SDS011;30595;52.478;13.524;2022-08-05T16:24:09;204.77;;;135.30;;
44858;SDS011;30595;52.478;13.524;2022-08-05T16:49:33;220.52;;;138.30;;
44858;SDS011;30595;52.478;13.524;2022-08-05T17:14:37;214.27;;;135.57;;
44858;SDS011;30595;52.478;13.524;2022-08-05T17:39:42;203.50;;;132.00;;
44858;SDS011;30595;52.478;13.524;2022-08-05T18:04:52;208.30;;;130.25;;
44858;SDS011;30595;52.478;13.524;2022-08-05T18:29:57;196.85;;;128.63;;
44858;SDS011;30595;52.478;13.524;2022-08-05T18:55:03;192.18;;;127.43;;
44858;SDS011;30595;52.478;13.524;2022-08-05T19:20:12;215.57;;;131.20;;
44858;SDS011;30595;52.478;13.524;2022-08-05T19:45:18;202.57;;;128.73;;
44858;SDS011;30595;52.478;13.524;2022-08-05T20:10:27;177.57;;;124.10;;
44858;SDS011;30595;52.478;13.524;2022-08-05T20:35:31;186.80;;;126.75;;
44858;SDS011;30595;52.478;13.524;2022-08-05T21:00:42;189.43;;;126.75;;
44858;SDS011;30595;52.478;13.524;2022-08-05T21:25:56;185.60;;;126.35;;
44858;SDS011;30595;52.478;13.524;2022-08-05T21:51:01;207.88;;;130.80;;
44858;SDS011;30595;52.478;13.524;2022-08-05T22:16:25;195.68;;;127.20;;
44858;SDS011;30595;52.478;13.524;2022-08-05T22:41:49;213.52;;;129.07;;
44858;SDS011;30595;52.478;13.524;2022-08-05T23:07:13;171.73;;;121.68;;
44858;SDS011;30595;52.478;13.524;2022-08-05T23:32:18;170.43;;;121.93;;
44858;SDS011;30595;52.478;13.524;2022-08-05T23:57:25;187.88;;;123.68;;
